Terminal Aerodrome Forecast
Issued by NWS Missoula, MT

Home | Current Version | Previous Version | Text Only | Print | Product List | Glossary On
Versions: 1 2 3 4 5 6 7 8 9 10 11 12
000
FTUS45 KMSO 281700
TAFBTM
TAF
KBTM 281725Z 2818/2918 07003KT P6SM OVC250
     FM290200 11010KT P6SM VCSH SCT080 BKN120
     FM290400 VRB04KT P6SM SKC=

USA.gov is the U.S. government's official web portal to all federal, state and local government web resources and services.